sensor_id;sensor_type;location;lat;lon;timestamp;temperature;humidity
39519;DHT22;25200;53.394;10.414;2022-12-07T00:01:08;3.60;91.20
39519;DHT22;25200;53.394;10.414;2022-12-07T00:03:35;3.60;91.10
39519;DHT22;25200;53.394;10.414;2022-12-07T00:06:02;3.70;91.10
39519;DHT22;25200;53.394;10.414;2022-12-07T00:08:27;3.70;91.10
39519;DHT22;25200;53.394;10.414;2022-12-07T00:10:53;3.70;91.20
39519;DHT22;25200;53.394;10.414;2022-12-07T00:13:19;3.70;91.10
39519;DHT22;25200;53.394;10.414;2022-12-07T00:15:45;3.70;91.10
39519;DHT22;25200;53.394;10.414;2022-12-07T00:18:10;3.70;91.30
39519;DHT22;25200;53.394;10.414;2022-12-07T00:20:36;3.70;91.20
39519;DHT22;25200;53.394;10.414;2022-12-07T00:23:02;3.80;91.20
39519;DHT22;25200;53.394;10.414;2022-12-07T00:25:27;3.80;91.10
39519;DHT22;25200;53.394;10.414;2022-12-07T00:27:53;3.80;91.20
39519;DHT22;25200;53.394;10.414;2022-12-07T00:30:24;3.80;91.10
39519;DHT22;25200;53.394;10.414;2022-12-07T00:32:50;3.90;91.10
39519;DHT22;25200;53.394;10.414;2022-12-07T00:35:16;3.80;91.20
39519;DHT22;25200;53.394;10.414;2022-12-07T00:37:41;3.90;91.10
39519;DHT22;25200;53.394;10.414;2022-12-07T00:40:07;3.90;91.10
39519;DHT22;25200;53.394;10.414;2022-12-07T00:42:33;3.90;91.30
39519;DHT22;25200;53.394;10.414;2022-12-07T00:44:59;3.90;91.10
39519;DHT22;25200;53.394;10.414;2022-12-07T00:47:24;3.90;91.10
39519;DHT22;25200;53.394;10.414;2022-12-07T00:49:50;3.90;91.20
39519;DHT22;25200;53.394;10.414;2022-12-07T00:52:16;3.90;91.10
39519;DHT22;25200;53.394;10.414;2022-12-07T00:54:41;4.00;91.10
39519;DHT22;25200;53.394;10.414;2022-12-07T00:57:07;4.00;91.20
39519;DHT22;25200;53.394;10.414;2022-12-07T00:59:33;4.00;91.10
39519;DHT22;25200;53.394;10.414;2022-12-07T01:01:58;4.00;91.10
39519;DHT22;25200;53.394;10.414;2022-12-07T01:04:24;4.00;91.40
39519;DHT22;25200;53.394;10.414;2022-12-07T01:06:49;4.00;91.20
39519;DHT22;25200;53.394;10.414;2022-12-07T01:09:15;4.10;91.20
39519;DHT22;25200;53.394;10.414;2022-12-07T01:11:41;4.00;91.20
39519;DHT22;25200;53.394;10.414;2022-12-07T01:14:06;4.00;91.10
39519;DHT22;25200;53.394;10.414;2022-12-07T01:16:32;4.10;91.20
39519;DHT22;25200;53.394;10.414;2022-12-07T01:18:59;4.00;91.20
39519;DHT22;25200;53.394;10.414;2022-12-07T01:21:30;4.00;91.10
39519;DHT22;25200;53.394;10.414;2022-12-07T01:24:00;4.10;91.20
39519;DHT22;25200;53.394;10.414;2022-12-07T01:26:27;4.10;91.10
39519;DHT22;25200;53.394;10.414;2022-12-07T01:28:53;4.10;91.20
39519;DHT22;25200;53.394;10.414;2022-12-07T01:31:22;4.10;91.10
39519;DHT22;25200;53.394;10.414;2022-12-07T01:33:52;4.10;91.10
39519;DHT22;25200;53.394;10.414;2022-12-07T01:36:27;4.10;91.20
39519;DHT22;25200;53.394;10.414;2022-12-07T01:38:57;4.10;91.20
39519;DHT22;25200;53.394;10.414;2022-12-07T01:41:25;4.10;91.20
39519;DHT22;25200;53.394;10.414;2022-12-07T01:46:40;4.20;91.20
39519;DHT22;25200;53.394;10.414;2022-12-07T01:51:46;4.10;91.20
39519;DHT22;25200;53.394;10.414;2022-12-07T01:54:14;4.10;91.20
39519;DHT22;25200;53.394;10.414;2022-12-07T01:56:42;4.10;91.20
39519;DHT22;25200;53.394;10.414;2022-12-07T01:59:09;4.10;91.20
39519;DHT22;25200;53.394;10.414;2022-12-07T02:01:35;4.20;91.20
39519;DHT22;25200;53.394;10.414;2022-12-07T02:04:01;4.20;91.30
39519;DHT22;25200;53.394;10.414;2022-12-07T02:06:27;4.20;91.30
39519;DHT22;25200;53.394;10.414;2022-12-07T02:08:53;4.20;91.30
39519;DHT22;25200;53.394;10.414;2022-12-07T02:11:19;4.20;91.30
39519;DHT22;25200;53.394;10.414;2022-12-07T02:13:46;4.20;91.30
39519;DHT22;25200;53.394;10.414;2022-12-07T02:22:07;4.20;91.40
39519;DHT22;25200;53.394;10.414;2022-12-07T02:30:15;4.20;91.40
39519;DHT22;25200;53.394;10.414;2022-12-07T02:38:21;4.30;91.40
39519;DHT22;25200;53.394;10.414;2022-12-07T02:41:02;4.30;91.40
39519;DHT22;25200;53.394;10.414;2022-12-07T02:43:57;4.30;91.40
39519;DHT22;25200;53.394;10.414;2022-12-07T02:46:31;4.30;91.30
39519;DHT22;25200;53.394;10.414;2022-12-07T02:48:58;4.30;91.40
39519;DHT22;25200;53.394;10.414;2022-12-07T02:51:25;4.30;91.50
39519;DHT22;25200;53.394;10.414;2022-12-07T02:53:51;4.30;91.50
39519;DHT22;25200;53.394;10.414;2022-12-07T02:59:25;4.20;91.40
39519;DHT22;25200;53.394;10.414;2022-12-07T03:09:45;4.10;91.40
39519;DHT22;25200;53.394;10.414;2022-12-07T03:12:24;4.10;91.40
39519;DHT22;25200;53.394;10.414;2022-12-07T03:15:00;4.10;91.40
39519;DHT22;25200;53.394;10.414;2022-12-07T03:17:28;4.00;91.40
39519;DHT22;25200;53.394;10.414;2022-12-07T03:19:58;4.10;91.50
39519;DHT22;25200;53.394;10.414;2022-12-07T03:22:30;4.00;91.50
39519;DHT22;25200;53.394;10.414;2022-12-07T03:25:03;4.10;91.50
39519;DHT22;25200;53.394;10.414;2022-12-07T03:27:36;4.10;91.50
39519;DHT22;25200;53.394;10.414;2022-12-07T03:30:07;4.10;91.40
39519;DHT22;25200;53.394;10.414;2022-12-07T03:32:38;4.10;91.40
39519;DHT22;25200;53.394;10.414;2022-12-07T03:35:14;4.10;91.40
39519;DHT22;25200;53.394;10.414;2022-12-07T03:42:48;4.10;91.40
39519;DHT22;25200;53.394;10.414;2022-12-07T03:45:15;4.00;91.40
39519;DHT22;25200;53.394;10.414;2022-12-07T03:47:54;4.10;91.50
39519;DHT22;25200;53.394;10.414;2022-12-07T03:53:19;4.00;91.40
39519;DHT22;25200;53.394;10.414;2022-12-07T03:55:47;4.00;91.40
39519;DHT22;25200;53.394;10.414;2022-12-07T03:58:17;4.00;91.40
39519;DHT22;25200;53.394;10.414;2022-12-07T04:00:44;4.00;91.40
39519;DHT22;25200;53.394;10.414;2022-12-07T04:03:11;4.00;91.50
39519;DHT22;25200;53.394;10.414;2022-12-07T04:05:37;4.00;91.50
39519;DHT22;25200;53.394;10.414;2022-12-07T04:08:03;3.90;91.50
39519;DHT22;25200;53.394;10.414;2022-12-07T04:10:29;3.90;91.50
39519;DHT22;25200;53.394;10.414;2022-12-07T04:12:56;3.90;91.40
39519;DHT22;25200;53.394;10.414;2022-12-07T04:15:21;3.90;91.50
39519;DHT22;25200;53.394;10.414;2022-12-07T04:17:47;3.80;91.40
39519;DHT22;25200;53.394;10.414;2022-12-07T04:20:13;3.80;91.50
39519;DHT22;25200;53.394;10.414;2022-12-07T04:22:39;3.80;91.40
39519;DHT22;25200;53.394;10.414;2022-12-07T04:25:05;3.80;91.60
39519;DHT22;25200;53.394;10.414;2022-12-07T04:27:31;3.80;91.60
39519;DHT22;25200;53.394;10.414;2022-12-07T04:29:56;3.70;91.80
39519;DHT22;25200;53.394;10.414;2022-12-07T04:32:23;3.80;91.60
39519;DHT22;25200;53.394;10.414;2022-12-07T04:34:49;3.80;91.60
39519;DHT22;25200;53.394;10.414;2022-12-07T04:37:14;3.80;91.60
39519;DHT22;25200;53.394;10.414;2022-12-07T04:39:40;3.80;91.50
39519;DHT22;25200;53.394;10.414;2022-12-07T04:42:06;3.80;91.50
39519;DHT22;25200;53.394;10.414;2022-12-07T04:44:32;3.80;91.50
39519;DHT22;25200;53.394;10.414;2022-12-07T04:46:58;3.70;91.40
39519;DHT22;25200;53.394;10.414;2022-12-07T04:49:24;3.70;91.30
39519;DHT22;25200;53.394;10.414;2022-12-07T04:51:50;3.60;91.20
39519;DHT22;25200;53.394;10.414;2022-12-07T04:54:16;3.60;91.30
39519;DHT22;25200;53.394;10.414;2022-12-07T04:56:43;3.50;91.30
39519;DHT22;25200;53.394;10.414;2022-12-07T04:59:13;3.50;91.30
39519;DHT22;25200;53.394;10.414;2022-12-07T05:01:39;3.50;91.30
39519;DHT22;25200;53.394;10.414;2022-12-07T05:04:06;3.40;91.20
39519;DHT22;25200;53.394;10.414;2022-12-07T05:06:31;3.40;91.20
39519;DHT22;25200;53.394;10.414;2022-12-07T05:08:57;3.40;91.30
39519;DHT22;25200;53.394;10.414;2022-12-07T05:11:23;3.40;91.20
39519;DHT22;25200;53.394;10.414;2022-12-07T05:16:40;3.30;91.10
39519;DHT22;25200;53.394;10.414;2022-12-07T05:19:07;3.30;91.20
39519;DHT22;25200;53.394;10.414;2022-12-07T05:21:33;3.30;91.20
39519;DHT22;25200;53.394;10.414;2022-12-07T05:23:59;3.20;91.20
39519;DHT22;25200;53.394;10.414;2022-12-07T05:26:24;3.20;91.20
39519;DHT22;25200;53.394;10.414;2022-12-07T05:28:54;3.10;91.10
39519;DHT22;25200;53.394;10.414;2022-12-07T05:31:21;3.10;91.10
39519;DHT22;25200;53.394;10.414;2022-12-07T05:33:46;3.10;91.10
39519;DHT22;25200;53.394;10.414;2022-12-07T05:36:12;3.10;91.20
39519;DHT22;25200;53.394;10.414;2022-12-07T05:38:38;3.10;91.10
39519;DHT22;25200;53.394;10.414;2022-12-07T05:41:05;3.10;91.20
39519;DHT22;25200;53.394;10.414;2022-12-07T05:43:32;3.10;91.20
39519;DHT22;25200;53.394;10.414;2022-12-07T05:45:58;3.10;91.00
39519;DHT22;25200;53.394;10.414;2022-12-07T05:48:24;3.10;91.00
39519;DHT22;25200;53.394;10.414;2022-12-07T05:50:50;3.00;91.10
39519;DHT22;25200;53.394;10.414;2022-12-07T05:53:17;3.10;91.30
39519;DHT22;25200;53.394;10.414;2022-12-07T05:55:43;3.00;91.00
39519;DHT22;25200;53.394;10.414;2022-12-07T05:58:08;3.00;90.90
39519;DHT22;25200;53.394;10.414;2022-12-07T06:00:55;3.00;91.00
39519;DHT22;25200;53.394;10.414;2022-12-07T06:03:21;3.00;91.00
39519;DHT22;25200;53.394;10.414;2022-12-07T06:05:47;3.00;90.90
39519;DHT22;25200;53.394;10.414;2022-12-07T06:08:12;3.00;91.00
39519;DHT22;25200;53.394;10.414;2022-12-07T06:10:41;3.00;90.90
39519;DHT22;25200;53.394;10.414;2022-12-07T06:13:07;3.00;90.90
39519;DHT22;25200;53.394;10.414;2022-12-07T06:15:36;3.00;91.00
39519;DHT22;25200;53.394;10.414;2022-12-07T06:18:02;3.00;91.00
39519;DHT22;25200;53.394;10.414;2022-12-07T06:20:27;3.00;90.90
39519;DHT22;25200;53.394;10.414;2022-12-07T06:22:53;3.00;90.80
39519;DHT22;25200;53.394;10.414;2022-12-07T06:25:19;3.00;90.90
39519;DHT22;25200;53.394;10.414;2022-12-07T06:27:44;3.00;90.90
39519;DHT22;25200;53.394;10.414;2022-12-07T06:30:10;3.00;90.80
39519;DHT22;25200;53.394;10.414;2022-12-07T06:32:37;3.00;90.90
39519;DHT22;25200;53.394;10.414;2022-12-07T06:35:03;3.00;90.90
39519;DHT22;25200;53.394;10.414;2022-12-07T06:37:29;3.00;90.90
39519;DHT22;25200;53.394;10.414;2022-12-07T06:39:54;3.00;90.90
39519;DHT22;25200;53.394;10.414;2022-12-07T06:42:20;3.00;90.80
39519;DHT22;25200;53.394;10.414;2022-12-07T06:44:46;2.90;90.80
39519;DHT22;25200;53.394;10.414;2022-12-07T06:47:12;3.00;90.80
39519;DHT22;25200;53.394;10.414;2022-12-07T06:49:37;3.00;90.70
39519;DHT22;25200;53.394;10.414;2022-12-07T06:52:03;3.00;90.70
39519;DHT22;25200;53.394;10.414;2022-12-07T06:54:31;3.00;90.60
39519;DHT22;25200;53.394;10.414;2022-12-07T06:56:56;3.00;90.60
39519;DHT22;25200;53.394;10.414;2022-12-07T06:59:22;3.00;90.60
39519;DHT22;25200;53.394;10.414;2022-12-07T07:01:48;3.00;90.60
39519;DHT22;25200;53.394;10.414;2022-12-07T07:04:14;3.00;90.80
39519;DHT22;25200;53.394;10.414;2022-12-07T07:06:39;2.90;90.60
39519;DHT22;25200;53.394;10.414;2022-12-07T07:09:05;2.90;90.60
39519;DHT22;25200;53.394;10.414;2022-12-07T07:11:31;3.00;90.50
39519;DHT22;25200;53.394;10.414;2022-12-07T07:13:56;3.00;90.50
39519;DHT22;25200;53.394;10.414;2022-12-07T07:16:24;2.90;90.50
39519;DHT22;25200;53.394;10.414;2022-12-07T07:18:50;2.90;90.50
39519;DHT22;25200;53.394;10.414;2022-12-07T07:21:15;2.90;90.50
39519;DHT22;25200;53.394;10.414;2022-12-07T07:23:41;2.90;90.50
39519;DHT22;25200;53.394;10.414;2022-12-07T07:26:07;2.90;90.50
39519;DHT22;25200;53.394;10.414;2022-12-07T07:28:32;2.90;90.50
39519;DHT22;25200;53.394;10.414;2022-12-07T07:30:58;2.90;90.40
39519;DHT22;25200;53.394;10.414;2022-12-07T07:33:23;2.90;90.50
39519;DHT22;25200;53.394;10.414;2022-12-07T07:35:49;2.90;90.50
39519;DHT22;25200;53.394;10.414;2022-12-07T07:38:15;2.90;90.60
39519;DHT22;25200;53.394;10.414;2022-12-07T07:40:40;2.80;90.50
39519;DHT22;25200;53.394;10.414;2022-12-07T07:43:06;2.80;90.50
39519;DHT22;25200;53.394;10.414;2022-12-07T07:45:32;2.80;90.60
39519;DHT22;25200;53.394;10.414;2022-12-07T07:47:57;2.80;90.60
39519;DHT22;25200;53.394;10.414;2022-12-07T07:50:23;2.80;90.60
39519;DHT22;25200;53.394;10.414;2022-12-07T07:52:49;2.80;90.60
39519;DHT22;25200;53.394;10.414;2022-12-07T07:55:15;2.90;90.60
39519;DHT22;25200;53.394;10.414;2022-12-07T07:57:40;2.90;90.60
39519;DHT22;25200;53.394;10.414;2022-12-07T08:00:11;2.90;90.60
39519;DHT22;25200;53.394;10.414;2022-12-07T08:02:38;2.90;90.60
39519;DHT22;25200;53.394;10.414;2022-12-07T08:05:04;2.90;90.60
39519;DHT22;25200;53.394;10.414;2022-12-07T08:07:30;2.90;90.60
39519;DHT22;25200;53.394;10.414;2022-12-07T08:09:55;2.90;90.60
39519;DHT22;25200;53.394;10.414;2022-12-07T08:12:21;2.90;90.60
39519;DHT22;25200;53.394;10.414;2022-12-07T08:14:46;2.90;90.60
39519;DHT22;25200;53.394;10.414;2022-12-07T08:17:12;2.90;90.60
39519;DHT22;25200;53.394;10.414;2022-12-07T08:19:38;2.90;90.70
39519;DHT22;25200;53.394;10.414;2022-12-07T08:22:04;2.90;90.70
39519;DHT22;25200;53.394;10.414;2022-12-07T08:24:32;2.90;90.70
39519;DHT22;25200;53.394;10.414;2022-12-07T08:26:58;2.90;90.80
39519;DHT22;25200;53.394;10.414;2022-12-07T08:29:23;2.90;90.70
39519;DHT22;25200;53.394;10.414;2022-12-07T08:31:49;2.80;90.70
39519;DHT22;25200;53.394;10.414;2022-12-07T08:34:15;2.80;90.80
39519;DHT22;25200;53.394;10.414;2022-12-07T08:36:40;2.80;90.90
39519;DHT22;25200;53.394;10.414;2022-12-07T08:39:06;2.80;90.90
39519;DHT22;25200;53.394;10.414;2022-12-07T08:41:32;2.80;90.80
39519;DHT22;25200;53.394;10.414;2022-12-07T08:43:58;2.80;91.00
39519;DHT22;25200;53.394;10.414;2022-12-07T08:46:34;2.80;91.00
39519;DHT22;25200;53.394;10.414;2022-12-07T08:51:40;2.80;91.10
39519;DHT22;25200;53.394;10.414;2022-12-07T08:54:10;2.80;91.00
39519;DHT22;25200;53.394;10.414;2022-12-07T08:56:36;2.80;91.10
39519;DHT22;25200;53.394;10.414;2022-12-07T08:59:03;2.80;91.10
39519;DHT22;25200;53.394;10.414;2022-12-07T09:01:29;2.80;91.10
39519;DHT22;25200;53.394;10.414;2022-12-07T09:03:55;2.80;91.20
39519;DHT22;25200;53.394;10.414;2022-12-07T09:06:21;2.80;91.10
39519;DHT22;25200;53.394;10.414;2022-12-07T09:08:50;2.80;91.20
39519;DHT22;25200;53.394;10.414;2022-12-07T09:11:16;2.80;91.30
39519;DHT22;25200;53.394;10.414;2022-12-07T09:13:42;2.80;91.20
39519;DHT22;25200;53.394;10.414;2022-12-07T09:16:08;2.80;91.20
39519;DHT22;25200;53.394;10.414;2022-12-07T09:18:33;2.80;91.20
39519;DHT22;25200;53.394;10.414;2022-12-07T09:20:59;2.80;91.30
39519;DHT22;25200;53.394;10.414;2022-12-07T09:23:25;2.90;91.30
39519;DHT22;25200;53.394;10.414;2022-12-07T09:25:51;2.90;91.30
39519;DHT22;25200;53.394;10.414;2022-12-07T09:28:16;2.90;91.30
39519;DHT22;25200;53.394;10.414;2022-12-07T09:30:46;3.00;91.30
39519;DHT22;25200;53.394;10.414;2022-12-07T09:33:13;3.00;91.50
39519;DHT22;25200;53.394;10.414;2022-12-07T09:35:45;3.00;91.50
39519;DHT22;25200;53.394;10.414;2022-12-07T09:38:11;3.10;91.40
39519;DHT22;25200;53.394;10.414;2022-12-07T09:40:36;3.20;91.30
39519;DHT22;25200;53.394;10.414;2022-12-07T09:43:02;3.20;91.30
39519;DHT22;25200;53.394;10.414;2022-12-07T09:45:34;3.30;91.40
39519;DHT22;25200;53.394;10.414;2022-12-07T09:48:02;3.40;91.40
39519;DHT22;25200;53.394;10.414;2022-12-07T09:50:29;3.40;91.30
39519;DHT22;25200;53.394;10.414;2022-12-07T09:53:14;3.50;91.20
39519;DHT22;25200;53.394;10.414;2022-12-07T09:55:41;3.60;91.10
39519;DHT22;25200;53.394;10.414;2022-12-07T09:58:23;3.70;91.20
39519;DHT22;25200;53.394;10.414;2022-12-07T10:00:58;3.70;90.90
39519;DHT22;25200;53.394;10.414;2022-12-07T10:03:27;3.70;90.90
39519;DHT22;25200;53.394;10.414;2022-12-07T10:05:53;3.80;90.90
39519;DHT22;25200;53.394;10.414;2022-12-07T10:08:19;3.90;90.90
39519;DHT22;25200;53.394;10.414;2022-12-07T10:10:49;3.90;90.90
39519;DHT22;25200;53.394;10.414;2022-12-07T10:13:20;3.90;90.90
39519;DHT22;25200;53.394;10.414;2022-12-07T10:15:57;4.00;91.00
39519;DHT22;25200;53.394;10.414;2022-12-07T10:23:33;4.10;90.90
39519;DHT22;25200;53.394;10.414;2022-12-07T10:26:15;4.20;91.00
39519;DHT22;25200;53.394;10.414;2022-12-07T10:28:44;4.20;91.00
39519;DHT22;25200;53.394;10.414;2022-12-07T10:31:19;4.20;91.00
39519;DHT22;25200;53.394;10.414;2022-12-07T10:33:59;4.20;91.00
39519;DHT22;25200;53.394;10.414;2022-12-07T10:36:36;4.20;91.10
39519;DHT22;25200;53.394;10.414;2022-12-07T10:39:22;4.30;91.10
39519;DHT22;25200;53.394;10.414;2022-12-07T10:41:56;4.30;91.00
39519;DHT22;25200;53.394;10.414;2022-12-07T10:44:25;4.30;91.10
39519;DHT22;25200;53.394;10.414;2022-12-07T10:46:57;4.40;91.10
39519;DHT22;25200;53.394;10.414;2022-12-07T11:00:48;4.50;91.20
39519;DHT22;25200;53.394;10.414;2022-12-07T11:03:38;4.60;91.10
39519;DHT22;25200;53.394;10.414;2022-12-07T11:11:30;4.60;91.00
39519;DHT22;25200;53.394;10.414;2022-12-07T11:24:20;4.80;91.20
39519;DHT22;25200;53.394;10.414;2022-12-07T11:27:23;4.80;91.10
39519;DHT22;25200;53.394;10.414;2022-12-07T11:35:15;4.90;91.00
39519;DHT22;25200;53.394;10.414;2022-12-07T11:37:43;4.90;91.40
39519;DHT22;25200;53.394;10.414;2022-12-07T11:42:57;4.90;90.90
39519;DHT22;25200;53.394;10.414;2022-12-07T11:45:27;4.90;91.10
39519;DHT22;25200;53.394;10.414;2022-12-07T11:48:02;4.90;90.90
39519;DHT22;25200;53.394;10.414;2022-12-07T11:50:45;4.90;91.00
39519;DHT22;25200;53.394;10.414;2022-12-07T11:53:33;4.90;90.90
39519;DHT22;25200;53.394;10.414;2022-12-07T12:06:38;4.80;91.10
39519;DHT22;25200;53.394;10.414;2022-12-07T12:14:35;4.80;90.90
39519;DHT22;25200;53.394;10.414;2022-12-07T12:20:19;4.80;90.90
39519;DHT22;25200;53.394;10.414;2022-12-07T12:23:06;4.80;90.90
39519;DHT22;25200;53.394;10.414;2022-12-07T12:25:58;4.80;90.90
39519;DHT22;25200;53.394;10.414;2022-12-07T12:31:13;4.80;90.90
39519;DHT22;25200;53.394;10.414;2022-12-07T12:34:00;4.80;91.00
39519;DHT22;25200;53.394;10.414;2022-12-07T12:47:00;4.80;91.00
39519;DHT22;25200;53.394;10.414;2022-12-07T12:57:31;4.80;91.00
39519;DHT22;25200;53.394;10.414;2022-12-07T13:00:02;4.80;91.00
39519;DHT22;25200;53.394;10.414;2022-12-07T13:15:44;4.90;91.00
39519;DHT22;25200;53.394;10.414;2022-12-07T13:33:59;4.80;91.10
39519;DHT22;25200;53.394;10.414;2022-12-07T13:36:37;4.70;91.10
39519;DHT22;25200;53.394;10.414;2022-12-07T13:39:18;4.70;91.10
39519;DHT22;25200;53.394;10.414;2022-12-07T13:41:49;4.70;91.10
39519;DHT22;25200;53.394;10.414;2022-12-07T13:44:17;4.70;91.10
39519;DHT22;25200;53.394;10.414;2022-12-07T13:49:36;4.60;91.10
39519;DHT22;25200;53.394;10.414;2022-12-07T13:52:20;4.60;91.10
39519;DHT22;25200;53.394;10.414;2022-12-07T13:54:47;4.60;91.10
39519;DHT22;25200;53.394;10.414;2022-12-07T13:57:15;4.60;91.10
39519;DHT22;25200;53.394;10.414;2022-12-07T13:59:40;4.60;91.10
39519;DHT22;25200;53.394;10.414;2022-12-07T14:04:45;4.60;91.10
39519;DHT22;25200;53.394;10.414;2022-12-07T14:07:25;4.60;91.20
39519;DHT22;25200;53.394;10.414;2022-12-07T14:12:21;4.60;91.10
39519;DHT22;25200;53.394;10.414;2022-12-07T14:14:48;4.60;91.40
39519;DHT22;25200;53.394;10.414;2022-12-07T14:17:20;4.60;91.10
39519;DHT22;25200;53.394;10.414;2022-12-07T14:24:49;4.50;91.10
39519;DHT22;25200;53.394;10.414;2022-12-07T14:27:23;4.50;91.10
39519;DHT22;25200;53.394;10.414;2022-12-07T14:29:51;4.50;91.10
39519;DHT22;25200;53.394;10.414;2022-12-07T14:32:25;4.50;91.20
39519;DHT22;25200;53.394;10.414;2022-12-07T14:35:12;4.50;91.20
39519;DHT22;25200;53.394;10.414;2022-12-07T14:37:40;4.50;91.10
39519;DHT22;25200;53.394;10.414;2022-12-07T14:40:06;4.50;91.10
39519;DHT22;25200;53.394;10.414;2022-12-07T14:42:33;4.40;91.10
39519;DHT22;25200;53.394;10.414;2022-12-07T14:44:59;4.40;91.10
39519;DHT22;25200;53.394;10.414;2022-12-07T14:47:26;4.30;90.90
39519;DHT22;25200;53.394;10.414;2022-12-07T14:49:52;4.30;91.00
39519;DHT22;25200;53.394;10.414;2022-12-07T14:52:24;4.20;90.80
39519;DHT22;25200;53.394;10.414;2022-12-07T14:54:51;4.20;90.90
39519;DHT22;25200;53.394;10.414;2022-12-07T14:57:17;4.10;90.90
39519;DHT22;25200;53.394;10.414;2022-12-07T14:59:43;4.00;90.90
39519;DHT22;25200;53.394;10.414;2022-12-07T15:02:11;4.00;90.60
39519;DHT22;25200;53.394;10.414;2022-12-07T15:04:37;3.90;90.80
39519;DHT22;25200;53.394;10.414;2022-12-07T15:07:04;3.80;90.70
39519;DHT22;25200;53.394;10.414;2022-12-07T15:09:30;3.70;90.70
39519;DHT22;25200;53.394;10.414;2022-12-07T15:11:56;3.70;90.60
39519;DHT22;25200;53.394;10.414;2022-12-07T15:14:22;3.60;90.70
39519;DHT22;25200;53.394;10.414;2022-12-07T15:16:47;3.50;90.60
39519;DHT22;25200;53.394;10.414;2022-12-07T15:19:15;3.50;90.60
39519;DHT22;25200;53.394;10.414;2022-12-07T15:21:42;3.40;90.50
39519;DHT22;25200;53.394;10.414;2022-12-07T15:24:09;3.40;90.70
39519;DHT22;25200;53.394;10.414;2022-12-07T15:26:35;3.30;90.40
39519;DHT22;25200;53.394;10.414;2022-12-07T15:29:01;3.20;90.60
39519;DHT22;25200;53.394;10.414;2022-12-07T15:31:27;3.20;90.70
39519;DHT22;25200;53.394;10.414;2022-12-07T15:33:53;3.10;90.70
39519;DHT22;25200;53.394;10.414;2022-12-07T15:36:24;3.20;90.90
39519;DHT22;25200;53.394;10.414;2022-12-07T15:38:50;3.20;90.70
39519;DHT22;25200;53.394;10.414;2022-12-07T15:41:16;3.20;90.70
39519;DHT22;25200;53.394;10.414;2022-12-07T15:43:42;3.20;90.90
39519;DHT22;25200;53.394;10.414;2022-12-07T15:46:40;3.20;90.80
39519;DHT22;25200;53.394;10.414;2022-12-07T15:49:14;3.20;90.90
39519;DHT22;25200;53.394;10.414;2022-12-07T15:51:41;3.20;90.70
39519;DHT22;25200;53.394;10.414;2022-12-07T15:54:07;3.20;90.80
39519;DHT22;25200;53.394;10.414;2022-12-07T15:56:34;3.10;90.60
39519;DHT22;25200;53.394;10.414;2022-12-07T15:59:00;3.10;90.70
39519;DHT22;25200;53.394;10.414;2022-12-07T16:01:25;3.10;90.60
39519;DHT22;25200;53.394;10.414;2022-12-07T16:03:51;3.10;90.60
39519;DHT22;25200;53.394;10.414;2022-12-07T16:06:18;3.10;90.70
39519;DHT22;25200;53.394;10.414;2022-12-07T16:08:45;3.00;90.50
39519;DHT22;25200;53.394;10.414;2022-12-07T16:11:12;3.00;90.60
39519;DHT22;25200;53.394;10.414;2022-12-07T16:13:38;3.00;90.60
39519;DHT22;25200;53.394;10.414;2022-12-07T16:16:13;2.90;90.60
39519;DHT22;25200;53.394;10.414;2022-12-07T16:18:39;2.90;90.60
39519;DHT22;25200;53.394;10.414;2022-12-07T16:21:04;2.90;90.60
39519;DHT22;25200;53.394;10.414;2022-12-07T16:23:30;2.90;90.60
39519;DHT22;25200;53.394;10.414;2022-12-07T16:26:07;2.90;90.60
39519;DHT22;25200;53.394;10.414;2022-12-07T16:28:33;2.90;90.60
39519;DHT22;25200;53.394;10.414;2022-12-07T16:31:01;2.90;90.60
39519;DHT22;25200;53.394;10.414;2022-12-07T16:33:27;2.90;90.60
39519;DHT22;25200;53.394;10.414;2022-12-07T16:35:53;2.80;90.50
39519;DHT22;25200;53.394;10.414;2022-12-07T16:38:18;2.80;90.40
39519;DHT22;25200;53.394;10.414;2022-12-07T16:40:44;2.80;90.50
39519;DHT22;25200;53.394;10.414;2022-12-07T16:43:11;2.80;90.40
39519;DHT22;25200;53.394;10.414;2022-12-07T16:45:38;2.80;90.50
39519;DHT22;25200;53.394;10.414;2022-12-07T16:48:04;2.80;90.40
39519;DHT22;25200;53.394;10.414;2022-12-07T16:50:30;2.70;90.40
39519;DHT22;25200;53.394;10.414;2022-12-07T16:52:56;2.70;90.40
39519;DHT22;25200;53.394;10.414;2022-12-07T16:55:21;2.70;90.40
39519;DHT22;25200;53.394;10.414;2022-12-07T16:57:47;2.70;90.30
39519;DHT22;25200;53.394;10.414;2022-12-07T17:00:13;2.70;90.30
39519;DHT22;25200;53.394;10.414;2022-12-07T17:02:38;2.70;90.30
39519;DHT22;25200;53.394;10.414;2022-12-07T17:05:04;2.70;90.20
39519;DHT22;25200;53.394;10.414;2022-12-07T17:07:30;2.70;90.20
39519;DHT22;25200;53.394;10.414;2022-12-07T17:09:55;2.60;90.20
39519;DHT22;25200;53.394;10.414;2022-12-07T17:12:21;2.60;90.30
39519;DHT22;25200;53.394;10.414;2022-12-07T17:14:47;2.60;90.10
39519;DHT22;25200;53.394;10.414;2022-12-07T17:17:31;2.50;90.10
39519;DHT22;25200;53.394;10.414;2022-12-07T17:19:56;2.40;90.20
39519;DHT22;25200;53.394;10.414;2022-12-07T17:22:22;2.40;90.10
39519;DHT22;25200;53.394;10.414;2022-12-07T17:24:48;2.40;90.10
39519;DHT22;25200;53.394;10.414;2022-12-07T17:27:13;2.40;90.00
39519;DHT22;25200;53.394;10.414;2022-12-07T17:29:39;2.40;90.10
39519;DHT22;25200;53.394;10.414;2022-12-07T17:32:05;2.40;90.20
39519;DHT22;25200;53.394;10.414;2022-12-07T17:34:31;2.30;89.80
39519;DHT22;25200;53.394;10.414;2022-12-07T17:36:56;2.30;90.10
39519;DHT22;25200;53.394;10.414;2022-12-07T17:39:22;2.30;90.00
39519;DHT22;25200;53.394;10.414;2022-12-07T17:41:48;2.30;90.10
39519;DHT22;25200;53.394;10.414;2022-12-07T17:44:32;2.30;90.00
39519;DHT22;25200;53.394;10.414;2022-12-07T17:46:58;2.30;90.00
39519;DHT22;25200;53.394;10.414;2022-12-07T17:49:25;2.30;90.20
39519;DHT22;25200;53.394;10.414;2022-12-07T17:51:51;2.30;90.10
39519;DHT22;25200;53.394;10.414;2022-12-07T17:54:35;2.20;90.10
39519;DHT22;25200;53.394;10.414;2022-12-07T17:57:01;2.30;90.10
39519;DHT22;25200;53.394;10.414;2022-12-07T17:59:27;2.30;90.10
39519;DHT22;25200;53.394;10.414;2022-12-07T18:01:53;2.30;90.10
39519;DHT22;25200;53.394;10.414;2022-12-07T18:04:18;2.30;90.00
39519;DHT22;25200;53.394;10.414;2022-12-07T18:06:44;2.20;90.10
39519;DHT22;25200;53.394;10.414;2022-12-07T18:09:10;2.30;90.10
39519;DHT22;25200;53.394;10.414;2022-12-07T18:11:36;2.20;90.10
39519;DHT22;25200;53.394;10.414;2022-12-07T18:14:04;2.20;90.00
39519;DHT22;25200;53.394;10.414;2022-12-07T18:16:31;2.20;90.00
39519;DHT22;25200;53.394;10.414;2022-12-07T18:19:02;2.20;90.00
39519;DHT22;25200;53.394;10.414;2022-12-07T18:21:29;2.20;90.00
39519;DHT22;25200;53.394;10.414;2022-12-07T18:23:57;2.20;90.00
39519;DHT22;25200;53.394;10.414;2022-12-07T18:26:24;2.20;90.00